Time;durP1;ratioP1;P1;durP2;ratioP2;P2;SDS_P1;SDS_P2;PMS_P1;PMS_P2;Temp;Humidity;BMP_temperature;BMP_pressure;BME280_temperature;BME280_humidity;BME280_pressure;Samples;Min_cycle;Max_cycle;Signal;HPM_P1;HPM_P2
2022/10/17 00:01:53;;;;;;;18.55;2.67;;;;;;;12.11;94.36;101558.53;4903181;29;20498;-70
2022/10/17 00:04:19;;;;;;;15.30;2.53;;;;;;;12.05;93.71;101551.19;4927908;29;20094;-69
2022/10/17 00:06:44;;;;;;;21.13;2.88;;;;;;;12.11;93.38;101569.31;4940029;29;20027;-70
2022/10/17 00:09:09;;;;;;;18.08;3.17;;;;;;;11.97;93.51;101554.03;4939631;29;20067;-70
2022/10/17 00:11:35;;;;;;;17.10;2.72;;;;;;;12.10;93.85;101586.53;4938460;29;20394;-70
2022/10/17 00:14:01;;;;;;;20.05;3.13;;;;;;;12.07;94.78;101576.13;4938280;28;20627;-70
2022/10/17 00:16:32;;;;;;;20.00;2.92;;;;;;;11.98;94.19;101563.78;4955826;29;20058;-70
2022/10/17 00:18:58;;;;;;;11.43;1.88;;;;;;;12.11;93.53;101574.72;4955635;29;20027;-70
2022/10/17 00:21:24;;;;;;;18.20;3.00;;;;;;;12.11;92.61;101576.59;4955536;29;20471;-70
2022/10/17 00:23:51;;;;;;;17.55;2.55;;;;;;;12.14;91.59;101584.28;4937788;29;20055;-70
2022/10/17 00:26:17;;;;;;;26.40;3.47;;;;;;;12.15;91.23;101588.66;4955162;28;20098;-71
2022/10/17 00:28:45;;;;;;;21.98;2.70;;;;;;;12.14;91.94;101587.00;4937868;29;20031;-70
2022/10/17 00:31:10;;;;;;;19.48;2.97;;;;;;;12.11;92.38;101585.50;4955347;29;20081;-70
2022/10/17 00:33:36;;;;;;;17.73;2.70;;;;;;;12.07;93.37;101589.63;4937768;29;20490;-70
2022/10/17 00:36:03;;;;;;;20.90;3.13;;;;;;;12.05;94.41;101580.88;4938041;29;20050;-70
2022/10/17 00:38:28;;;;;;;20.50;3.00;;;;;;;12.06;94.95;101601.44;4937849;29;20114;-70
2022/10/17 00:40:53;;;;;;;19.45;2.92;;;;;;;12.03;95.66;101604.50;4903631;29;20456;-70
2022/10/17 00:43:19;;;;;;;12.95;2.55;;;;;;;12.04;96.00;101608.88;4951492;29;20065;-70
2022/10/17 00:45:44;;;;;;;16.77;2.72;;;;;;;12.05;95.95;101605.16;4955014;29;20542;-70
2022/10/17 00:48:10;;;;;;;18.50;2.95;;;;;;;11.89;95.43;101586.50;4937608;29;20035;-70
2022/10/17 00:50:38;;;;;;;19.80;2.83;;;;;;;12.02;95.61;101613.63;4937963;29;20117;-70
2022/10/17 00:53:07;;;;;;;23.83;3.35;;;;;;;11.99;95.86;101614.84;4937802;29;20034;-70
2022/10/17 00:55:36;;;;;;;15.55;2.95;;;;;;;11.98;96.11;101631.19;4954544;29;20109;-71
2022/10/17 00:58:03;;;;;;;16.80;2.85;;;;;;;11.93;96.31;101625.56;4937421;29;20027;-70
2022/10/17 01:00:29;;;;;;;17.98;2.83;;;;;;;11.88;96.65;101636.88;4937579;29;20494;-70
2022/10/17 01:02:55;;;;;;;21.90;3.15;;;;;;;11.76;96.57;101620.31;4954592;29;20039;-70
2022/10/17 01:05:20;;;;;;;20.05;2.83;;;;;;;11.80;96.24;101641.53;4937223;29;20050;-70
2022/10/17 01:07:49;;;;;;;21.73;2.63;;;;;;;11.79;96.03;101638.00;4918228;29;20067;-70
2022/10/17 01:10:16;;;;;;;14.88;3.33;;;;;;;11.74;95.66;101637.72;4942817;29;20042;-70
2022/10/17 01:12:53;;;;;;;21.40;2.83;;;;;;;11.67;95.97;101637.63;4954643;29;20054;-70
2022/10/17 01:15:30;;;;;;;19.20;2.88;;;;;;;11.65;95.09;101639.66;4937187;29;20027;-70
2022/10/17 01:18:33;;;;;;;17.25;2.80;;;;;;;11.63;94.80;101643.56;4954431;29;20038;-70
2022/10/17 01:21:11;;;;;;;17.50;2.75;;;;;;;11.59;94.97;101640.41;4954507;29;20114;-70
2022/10/17 01:24:15;;;;;;;16.30;2.60;;;;;;;11.60;95.17;101636.69;4954199;29;20498;-70
2022/10/17 01:26:43;;;;;;;19.35;2.85;;;;;;;11.61;95.60;101638.34;4925291;29;20062;-71
2022/10/17 01:29:29;;;;;;;17.52;2.80;;;;;;;11.61;95.45;101643.75;4954011;28;20038;-70
2022/10/17 01:32:03;;;;;;;15.35;2.78;;;;;;;11.58;95.85;101644.13;4939822;29;20030;-70
2022/10/17 01:34:54;;;;;;;16.70;2.53;;;;;;;11.56;96.00;101639.94;4934124;29;20031;-70
2022/10/17 01:37:31;;;;;;;17.10;2.65;;;;;;;11.53;95.78;101649.25;4894606;29;20036;-70
2022/10/17 01:40:13;;;;;;;15.35;2.35;;;;;;;11.49;96.69;101645.25;4894845;29;20441;-70
2022/10/17 01:42:58;;;;;;;21.65;3.20;;;;;;;11.12;97.63;101595.75;4879167;29;20044;-70
2022/10/17 01:45:33;;;;;;;17.92;2.45;;;;;;;11.39;97.53;101647.34;4894616;29;20032;-70
2022/10/17 01:48:22;;;;;;;18.13;2.35;;;;;;;11.35;98.49;101657.66;4894442;29;20048;-70
2022/10/17 01:50:53;;;;;;;16.23;2.60;;;;;;;11.34;98.70;101649.78;4860326;29;20535;-70
2022/10/17 01:53:33;;;;;;;16.20;2.30;;;;;;;11.35;98.71;101654.13;4875902;29;20054;-70
2022/10/17 01:56:01;;;;;;;18.30;2.40;;;;;;;11.43;98.92;101652.19;4862183;29;20048;-70
2022/10/17 01:58:32;;;;;;;16.38;2.47;;;;;;;11.44;98.69;101642.25;4875827;29;20045;-70
2022/10/17 02:01:02;;;;;;;19.45;3.35;;;;;;;11.51;98.95;101653.97;4875821;29;20564;-70
2022/10/17 02:03:28;;;;;;;19.17;2.55;;;;;;;11.52;99.63;101647.53;4875767;29;20088;-70
2022/10/17 02:05:54;;;;;;;18.95;2.40;;;;;;;11.58;99.83;101654.91;4875568;29;20101;-70
2022/10/17 02:08:49;;;;;;;20.70;2.95;;;;;;;11.59;99.98;101659.28;4894502;29;20044;-70
2022/10/17 02:11:23;;;;;;;19.33;3.22;;;;;;;11.51;100.00;101659.34;4882624;29;20040;-70
2022/10/17 02:14:16;;;;;;;26.55;3.22;;;;;;;11.57;100.00;101666.72;4882371;29;20474;-70
2022/10/17 02:16:53;;;;;;;24.23;2.97;;;;;;;11.42;100.00;101655.94;4913050;29;20074;-71
2022/10/17 02:19:35;;;;;;;30.05;3.33;;;;;;;11.61;100.00;101680.66;4913241;29;20369;-70
2022/10/17 02:22:06;;;;;;;25.67;3.67;;;;;;;11.62;100.00;101683.19;4907867;29;20039;-70
2022/10/17 02:24:43;;;;;;;27.13;2.90;;;;;;;11.47;100.00;101663.44;4953320;29;20027;-70
2022/10/17 02:27:33;;;;;;;22.25;2.70;;;;;;;11.61;100.00;101686.88;4935908;29;20047;-70
2022/10/17 02:30:13;;;;;;;17.75;2.72;;;;;;;11.60;100.00;101684.38;4939111;29;20059;-70
2022/10/17 02:32:42;;;;;;;25.50;3.88;;;;;;;11.60;100.00;101689.78;4953315;29;20147;-69
2022/10/17 02:35:12;;;;;;;22.67;3.65;;;;;;;11.61;100.00;101692.28;4953169;29;20035;-69
2022/10/17 02:37:39;;;;;;;19.63;3.05;;;;;;;11.61;100.00;101700.34;4953027;29;20122;-70
2022/10/17 02:40:08;;;;;;;23.45;3.13;;;;;;;11.52;100.00;101683.44;4953143;29;20136;-69
2022/10/17 02:42:34;;;;;;;21.05;3.15;;;;;;;11.58;100.00;101695.31;4935882;29;20498;-70
2022/10/17 02:45:01;;;;;;;19.80;3.38;;;;;;;11.54;100.00;101694.03;4952145;28;20047;-70
2022/10/17 02:47:34;;;;;;;19.70;2.40;;;;;;;11.53;100.00;101697.75;4920185;29;20039;-69
2022/10/17 02:49:59;;;;;;;26.15;3.38;;;;;;;11.48;100.00;101700.97;4952996;29;20617;-70
2022/10/17 02:52:40;;;;;;;21.88;2.80;;;;;;;11.45;100.00;101708.59;4952957;29;20088;-70
2022/10/17 02:55:09;;;;;;;19.48;2.75;;;;;;;11.38;100.00;101710.34;4952907;29;20039;-70
2022/10/17 02:57:45;;;;;;;18.00;2.83;;;;;;;11.35;100.00;101718.78;4952870;28;20031;-70
2022/10/17 03:00:13;;;;;;;27.17;3.72;;;;;;;11.31;100.00;101715.63;4935660;29;20027;-70
2022/10/17 03:02:44;;;;;;;22.13;2.95;;;;;;;11.25;100.00;101714.50;4935374;29;20475;-70
2022/10/17 03:05:11;;;;;;;20.30;2.53;;;;;;;11.19;100.00;101704.47;4951235;29;20047;-70
2022/10/17 03:07:36;;;;;;;19.92;3.00;;;;;;;11.13;100.00;101713.25;4952364;29;20468;-70
2022/10/17 03:10:02;;;;;;;22.98;2.88;;;;;;;11.12;100.00;101711.56;4935721;29;20071;-69
2022/10/17 03:12:28;;;;;;;22.33;3.15;;;;;;;11.07;100.00;101713.97;4935797;29;20122;-70
2022/10/17 03:14:53;;;;;;;21.00;2.65;;;;;;;10.92;100.00;101695.06;4934590;29;20122;-69
2022/10/17 03:17:19;;;;;;;25.05;3.25;;;;;;;11.03;100.00;101718.91;4952572;29;20039;-69
2022/10/17 03:19:44;;;;;;;19.27;2.78;;;;;;;10.96;100.00;101715.25;4952533;29;20059;-69
2022/10/17 03:22:09;;;;;;;26.50;3.75;;;;;;;10.92;100.00;101729.22;4952694;29;20540;-70
2022/10/17 03:24:35;;;;;;;19.73;3.08;;;;;;;10.87;100.00;101735.16;4935331;29;20062;-70
2022/10/17 03:27:00;;;;;;;18.52;2.45;;;;;;;10.66;100.00;101716.09;4935402;29;20106;-70
2022/10/17 03:29:25;;;;;;;23.88;2.97;;;;;;;10.80;100.00;101758.44;4935281;29;20092;-69
2022/10/17 03:31:51;;;;;;;17.17;2.70;;;;;;;10.65;100.00;101726.03;4935406;29;20498;-69
2022/10/17 03:34:17;;;;;;;21.30;4.07;;;;;;;10.72;100.00;101736.94;4952661;29;20039;-70
2022/10/17 03:36:43;;;;;;;23.40;2.75;;;;;;;10.70;100.00;101752.44;4935267;29;20039;-70
2022/10/17 03:39:09;;;;;;;20.10;2.50;;;;;;;10.67;100.00;101744.72;4952638;29;20441;-69
2022/10/17 03:41:34;;;;;;;23.67;3.10;;;;;;;10.61;100.00;101742.72;4952664;29;20610;-69
2022/10/17 03:43:59;;;;;;;25.30;3.30;;;;;;;10.57;100.00;101734.16;4916298;29;20035;-69
2022/10/17 03:46:25;;;;;;;18.85;3.30;;;;;;;10.53;100.00;101730.16;4944619;29;20110;-70
2022/10/17 03:48:56;;;;;;;21.73;2.92;;;;;;;10.50;100.00;101725.97;4934717;29;20509;-69
2022/10/17 03:51:28;;;;;;;18.98;3.10;;;;;;;10.47;100.00;101718.22;4934666;29;20031;-69
2022/10/17 03:53:53;;;;;;;32.83;3.33;;;;;;;10.43;100.00;101718.75;4936282;29;20498;-69
2022/10/17 03:56:23;;;;;;;23.05;3.13;;;;;;;10.39;100.00;101720.13;4934687;29;20046;-70
2022/10/17 03:58:48;;;;;;;22.45;2.70;;;;;;;10.18;100.00;101683.88;4954115;28;20504;-70
2022/10/17 04:01:18;;;;;;;16.35;2.78;;;;;;;10.34;100.00;101723.34;4938733;29;20047;-70
2022/10/17 04:03:48;;;;;;;26.15;3.42;;;;;;;10.30;100.00;101725.53;4923082;29;20408;-70
2022/10/17 04:06:14;;;;;;;22.25;2.88;;;;;;;10.27;100.00;101731.28;4955926;28;20031;-69
2022/10/17 04:08:41;;;;;;;20.35;2.70;;;;;;;10.06;100.00;101712.13;4955840;29;20046;-70
2022/10/17 04:11:07;;;;;;;29.25;3.70;;;;;;;10.20;100.00;101751.78;4955668;29;20054;-70
2022/10/17 04:13:34;;;;;;;23.25;3.10;;;;;;;10.19;100.00;101754.63;4938321;29;20038;-70
2022/10/17 04:16:04;;;;;;;26.02;3.20;;;;;;;10.17;100.00;101756.66;4938299;29;20146;-70
2022/10/17 04:18:30;;;;;;;24.85;3.33;;;;;;;10.10;100.00;101761.91;4938254;29;20066;-69
2022/10/17 04:20:56;;;;;;;30.80;3.30;;;;;;;10.09;100.00;101762.88;4938478;29;20063;-71
2022/10/17 04:23:22;;;;;;;18.38;3.20;;;;;;;10.10;100.00;101764.59;4938245;29;20046;-70
2022/10/17 04:25:47;;;;;;;22.52;3.08;;;;;;;10.06;100.00;101764.06;4938293;29;20030;-70
2022/10/17 04:28:13;;;;;;;22.42;2.97;;;;;;;9.87;100.00;101746.50;4938115;29;20043;-72
2022/10/17 04:30:39;;;;;;;21.80;3.20;;;;;;;9.97;100.00;101766.97;4938327;29;20402;-70
2022/10/17 04:33:04;;;;;;;20.98;2.65;;;;;;;9.92;100.00;101770.16;4938238;29;20045;-68
2022/10/17 04:35:30;;;;;;;23.77;3.38;;;;;;;9.73;100.00;101744.47;4937792;29;20130;-69
2022/10/17 04:37:56;;;;;;;26.50;2.63;;;;;;;9.81;100.00;101760.59;4955370;29;20031;-69
2022/10/17 04:40:24;;;;;;;25.15;2.92;;;;;;;9.68;100.00;101746.03;4937682;29;20109;-70
2022/10/17 04:42:51;;;;;;;21.58;2.50;;;;;;;9.75;100.00;101774.72;4937899;29;20118;-70
2022/10/17 04:45:16;;;;;;;30.80;3.33;;;;;;;9.72;100.00;101769.69;4955414;29;20042;-69
2022/10/17 04:47:42;;;;;;;22.42;2.90;;;;;;;9.71;100.00;101777.94;4954922;29;20040;-68
2022/10/17 04:50:07;;;;;;;23.42;2.88;;;;;;;9.70;100.00;101777.09;4955074;29;20039;-70
2022/10/17 04:52:36;;;;;;;28.60;2.90;;;;;;;9.71;100.00;101786.00;4954582;29;20182;-70
2022/10/17 04:55:02;;;;;;;27.10;2.85;;;;;;;9.70;100.00;101790.53;4955100;29;20494;-69
2022/10/17 04:57:28;;;;;;;23.25;3.70;;;;;;;9.68;100.00;101786.34;4954637;28;20057;-70
2022/10/17 04:59:53;;;;;;;26.85;2.60;;;;;;;9.53;100.00;101770.03;4936887;29;20045;-71
2022/10/17 05:02:19;;;;;;;24.13;3.15;;;;;;;9.63;100.00;101786.81;4937714;29;20035;-70
2022/10/17 05:04:44;;;;;;;27.00;3.38;;;;;;;9.69;100.00;101804.97;4937267;29;20031;-70
2022/10/17 05:07:09;;;;;;;21.80;2.83;;;;;;;9.69;100.00;101818.41;4937224;29;20039;-71
2022/10/17 05:09:35;;;;;;;23.27;2.70;;;;;;;9.60;100.00;101804.16;4936327;29;20468;-71
2022/10/17 05:12:00;;;;;;;24.85;3.15;;;;;;;9.64;100.00;101815.41;4954421;29;20039;-71
2022/10/17 05:14:26;;;;;;;25.83;3.05;;;;;;;9.61;100.00;101803.13;4918300;29;20031;-70
2022/10/17 05:16:51;;;;;;;23.52;2.80;;;;;;;9.57;100.00;101799.09;4929569;29;20178;-69
2022/10/17 05:19:17;;;;;;;24.63;3.33;;;;;;;9.51;100.00;101794.41;4954496;29;20058;-70
2022/10/17 05:21:42;;;;;;;22.80;3.03;;;;;;;9.37;100.00;101773.56;4937029;29;20058;-71
2022/10/17 05:24:10;;;;;;;19.75;2.58;;;;;;;9.47;100.00;101789.50;4937260;29;20490;-71
2022/10/17 05:26:35;;;;;;;22.10;2.97;;;;;;;9.43;100.00;101790.84;4936871;29;20058;-68
2022/10/17 05:29:04;;;;;;;23.20;3.42;;;;;;;9.42;100.00;101800.78;4954283;29;20039;-67
2022/10/17 05:31:29;;;;;;;31.17;3.10;;;;;;;9.35;100.00;101795.22;4954271;29;20046;-70
2022/10/17 05:33:59;;;;;;;20.10;2.65;;;;;;;9.33;100.00;101797.22;4937010;29;20402;-68
2022/10/17 05:36:24;;;;;;;22.05;2.75;;;;;;;9.27;100.00;101797.91;4954219;29;20027;-68
2022/10/17 05:38:50;;;;;;;24.67;3.25;;;;;;;9.12;100.00;101778.06;4954036;29;20062;-67
2022/10/17 05:41:17;;;;;;;29.90;3.95;;;;;;;9.29;100.00;101809.31;4936976;29;20031;-69
2022/10/17 05:43:43;;;;;;;22.67;3.42;;;;;;;9.29;100.00;101797.75;4954197;29;20047;-68
2022/10/17 05:46:09;;;;;;;26.60;3.95;;;;;;;9.26;100.00;101806.13;4954110;29;20027;-68
2022/10/17 05:48:34;;;;;;;25.95;2.75;;;;;;;9.21;100.00;101813.84;4953828;28;20039;-66
2022/10/17 05:51:02;;;;;;;26.88;3.25;;;;;;;9.06;100.00;101789.47;4936804;29;20039;-67
2022/10/17 05:53:33;;;;;;;23.92;2.60;;;;;;;9.10;100.00;101815.81;4936345;29;20031;-68
2022/10/17 05:55:59;;;;;;;26.27;3.22;;;;;;;9.10;100.00;101804.25;4936472;29;20027;-69
2022/10/17 05:58:26;;;;;;;24.92;2.65;;;;;;;9.12;100.00;101821.03;4953711;29;20137;-68
2022/10/17 06:00:56;;;;;;;30.30;3.65;;;;;;;9.11;100.00;101819.38;4953584;29;20047;-68
2022/10/17 06:03:21;;;;;;;23.55;2.63;;;;;;;9.05;100.00;101803.91;4953835;29;20043;-65
2022/10/17 06:05:47;;;;;;;24.45;3.00;;;;;;;9.02;100.00;101806.94;4936433;29;20508;-67
2022/10/17 06:08:12;;;;;;;27.10;3.17;;;;;;;9.03;100.00;101817.50;4953365;29;20031;-66
2022/10/17 06:10:38;;;;;;;28.33;2.95;;;;;;;9.04;100.00;101829.06;4936082;29;20035;-68
2022/10/17 06:13:03;;;;;;;28.52;3.08;;;;;;;9.00;100.00;101812.44;4920405;29;20138;-67
2022/10/17 06:15:31;;;;;;;31.70;3.70;;;;;;;9.00;100.00;101815.13;4953511;28;20062;-67
2022/10/17 06:17:56;;;;;;;22.80;3.20;;;;;;;9.06;100.00;101829.75;4936204;29;20485;-67
2022/10/17 06:20:22;;;;;;;30.33;3.38;;;;;;;9.06;100.00;101827.06;4920206;28;20058;-65
2022/10/17 06:22:47;;;;;;;21.55;2.50;;;;;;;9.06;100.00;101825.22;4953058;29;20075;-66
2022/10/17 06:25:15;;;;;;;23.85;3.33;;;;;;;9.09;100.00;101826.75;4953342;29;20114;-66
2022/10/17 06:27:40;;;;;;;36.10;3.53;;;;;;;9.14;100.00;101853.94;4953121;29;20425;-67
2022/10/17 06:30:06;;;;;;;28.95;3.65;;;;;;;9.19;100.00;101848.91;4953121;29;20031;-66
2022/10/17 06:32:32;;;;;;;22.75;3.60;;;;;;;9.13;100.00;101822.72;4953260;28;20110;-67
2022/10/17 06:34:57;;;;;;;25.40;2.92;;;;;;;9.34;100.00;101852.66;4935964;29;20038;-67
2022/10/17 06:37:22;;;;;;;33.40;3.63;;;;;;;9.38;100.00;101847.78;4953250;29;20498;-67
2022/10/17 06:39:50;;;;;;;29.30;3.38;;;;;;;9.43;100.00;101841.91;4953198;29;20023;-67
2022/10/17 06:42:16;;;;;;;33.72;4.40;;;;;;;9.45;100.00;101839.91;4953236;28;20469;-66
2022/10/17 06:44:41;;;;;;;26.05;3.10;;;;;;;9.50;100.00;101845.59;4953205;29;20063;-67
2022/10/17 06:47:08;;;;;;;29.95;3.75;;;;;;;9.59;100.00;101847.28;4953008;29;20075;-66
2022/10/17 06:49:33;;;;;;;29.10;3.80;;;;;;;9.69;100.00;101855.19;4952658;29;20079;-67
2022/10/17 06:51:59;;;;;;;25.70;2.95;;;;;;;9.79;100.00;101858.53;4935674;29;20077;-67
2022/10/17 06:54:24;;;;;;;27.73;3.75;;;;;;;9.86;100.00;101865.75;4935795;29;20035;-67
2022/10/17 06:56:50;;;;;;;36.72;3.80;;;;;;;9.86;100.00;101856.88;4893629;29;20100;-67
2022/10/17 06:59:15;;;;;;;32.28;3.60;;;;;;;10.04;100.00;101856.69;4878052;29;20123;-67
2022/10/17 07:01:41;;;;;;;31.13;3.58;;;;;;;9.92;100.00;101833.84;4893887;29;20108;-67
2022/10/17 07:04:07;;;;;;;30.67;3.60;;;;;;;10.06;100.00;101844.75;4893793;29;20111;-67
2022/10/17 07:06:33;;;;;;;24.63;3.40;;;;;;;10.03;100.00;101844.25;4893947;29;20696;-68
2022/10/17 07:08:59;;;;;;;31.00;4.30;;;;;;;10.23;100.00;101869.78;4894207;29;20496;-68
2022/10/17 07:11:25;;;;;;;27.65;3.40;;;;;;;10.29;100.00;101870.97;4894910;29;20104;-67
2022/10/17 07:13:50;;;;;;;27.98;3.83;;;;;;;10.35;100.00;101886.44;4878116;29;20061;-67
2022/10/17 07:16:16;;;;;;;32.25;3.67;;;;;;;10.32;100.00;101876.00;4893667;29;20048;-67
2022/10/17 07:18:48;;;;;;;29.10;4.05;;;;;;;10.41;100.00;101888.44;4893479;29;20071;-68
2022/10/17 07:21:13;;;;;;;26.67;3.45;;;;;;;10.51;100.00;101888.25;4893943;29;20041;-66
2022/10/17 07:23:40;;;;;;;30.20;3.78;;;;;;;10.56;100.00;101888.56;4877881;29;20036;-66
2022/10/17 07:26:08;;;;;;;24.60;3.45;;;;;;;10.52;100.00;101879.16;4893560;29;20073;-66
2022/10/17 07:28:35;;;;;;;26.30;4.00;;;;;;;10.52;100.00;101874.59;4941131;29;20081;-66
2022/10/17 07:31:05;;;;;;;26.02;3.78;;;;;;;10.77;100.00;101901.47;4952782;29;20070;-67
2022/10/17 07:33:31;;;;;;;32.92;3.88;;;;;;;10.84;100.00;101907.00;4936548;29;20042;-67
2022/10/17 07:35:58;;;;;;;34.65;3.53;;;;;;;10.90;100.00;101903.63;4939315;29;20371;-67
2022/10/17 07:38:24;;;;;;;31.90;3.28;;;;;;;10.99;100.00;101916.00;4938985;29;20490;-66
2022/10/17 07:41:04;;;;;;;28.60;3.55;;;;;;;11.05;100.00;101908.06;4939097;29;20089;-68
2022/10/17 07:43:30;;;;;;;31.58;3.78;;;;;;;11.09;100.00;101908.56;4955760;29;20079;-67
2022/10/17 07:45:55;;;;;;;31.58;4.05;;;;;;;11.09;100.00;101889.69;4955845;29;20031;-67
2022/10/17 07:48:22;;;;;;;31.08;4.25;;;;;;;11.21;100.00;101906.31;4938717;29;20622;-67
2022/10/17 07:50:48;;;;;;;31.15;3.70;;;;;;;11.12;100.00;101885.81;4956127;29;20027;-66
2022/10/17 07:53:13;;;;;;;23.88;3.78;;;;;;;11.31;100.00;101909.63;4938869;29;20046;-67
2022/10/17 07:55:40;;;;;;;31.08;3.35;;;;;;;11.35;100.00;101907.41;4938760;29;20038;-67
2022/10/17 07:58:07;;;;;;;34.05;4.07;;;;;;;11.37;100.00;101902.72;4955791;29;20070;-67
2022/10/17 08:00:32;;;;;;;35.15;4.22;;;;;;;11.41;100.00;101886.00;4956061;29;20050;-67
2022/10/17 08:02:58;;;;;;;25.95;3.78;;;;;;;11.40;100.00;101878.09;4955937;29;20122;-67
2022/10/17 08:05:23;;;;;;;27.15;3.80;;;;;;;11.44;100.00;101884.81;4955881;29;20605;-67
2022/10/17 08:07:48;;;;;;;24.83;3.55;;;;;;;11.45;100.00;101878.38;4938435;29;20035;-67
2022/10/17 08:10:14;;;;;;;28.27;3.33;;;;;;;11.52;100.00;101882.03;4919669;29;20051;-67
2022/10/17 08:12:40;;;;;;;30.00;3.88;;;;;;;11.57;100.00;101887.75;4945944;29;20114;-68
2022/10/17 08:15:07;;;;;;;26.77;3.65;;;;;;;11.64;100.00;101885.16;4955563;29;20110;-68
2022/10/17 08:17:37;;;;;;;36.30;4.18;;;;;;;11.70;100.00;101888.00;4955357;29;20321;-67
2022/10/17 08:20:05;;;;;;;32.00;3.42;;;;;;;11.75;100.00;101884.75;4955592;29;20034;-68
2022/10/17 08:22:33;;;;;;;25.85;3.70;;;;;;;11.85;100.00;101892.63;4938383;29;20031;-67
2022/10/17 08:24:59;;;;;;;29.73;4.55;;;;;;;11.93;100.00;101895.25;4955724;29;20046;-67
2022/10/17 08:27:26;;;;;;;32.55;3.65;;;;;;;11.99;100.00;101889.97;4955461;29;20051;-68
2022/10/17 08:29:52;;;;;;;26.83;3.15;;;;;;;12.11;100.00;101886.84;4922276;29;20031;-67
2022/10/17 08:32:19;;;;;;;23.58;3.22;;;;;;;12.18;100.00;101890.47;4938099;29;20046;-67
2022/10/17 08:34:45;;;;;;;23.83;3.88;;;;;;;12.27;100.00;101885.84;4938065;29;20038;-68
2022/10/17 08:37:12;;;;;;;24.60;3.25;;;;;;;12.32;100.00;101886.97;4955391;29;20027;-67
2022/10/17 08:39:38;;;;;;;21.85;3.28;;;;;;;12.30;100.00;101866.59;4937791;29;20537;-67
2022/10/17 08:42:31;;;;;;;22.27;3.33;;;;;;;12.44;100.00;101882.78;4955271;29;20053;-67
2022/10/17 08:45:41;;;;;;;22.27;2.95;;;;;;;12.53;100.00;101888.94;4955007;28;20035;-67
2022/10/17 08:48:20;;;;;;;33.10;4.20;;;;;;;12.53;100.00;101891.66;4858018;29;20037;-67
2022/10/17 08:51:02;;;;;;;22.35;3.95;;;;;;;12.64;100.00;101899.28;4941381;29;20446;-67
2022/10/17 08:53:35;;;;;;;20.25;3.53;;;;;;;12.69;100.00;101904.13;4955051;29;20059;-67
2022/10/17 08:56:23;;;;;;;24.20;3.78;;;;;;;12.72;100.00;101897.53;4922645;29;20517;-68
2022/10/17 08:58:49;;;;;;;25.67;3.33;;;;;;;12.72;100.00;101897.53;4937409;29;20031;-67
2022/10/17 09:01:42;;;;;;;25.10;3.40;;;;;;;12.76;100.00;101898.81;4937712;29;20204;-67
2022/10/17 09:04:41;;;;;;;23.13;3.00;;;;;;;12.79;100.00;101891.19;4940919;29;20039;-67
2022/10/17 09:07:31;;;;;;;21.10;3.10;;;;;;;12.79;100.00;101893.06;4954562;29;20031;-67
2022/10/17 09:10:28;;;;;;;22.55;3.33;;;;;;;12.84;100.00;101882.50;4939106;29;20491;-67
2022/10/17 09:13:12;;;;;;;26.08;3.28;;;;;;;12.89;100.00;101880.94;4895475;29;20049;-67
2022/10/17 09:16:06;;;;;;;24.77;3.00;;;;;;;12.92;100.00;101879.72;4895546;29;20040;-67
2022/10/17 09:18:39;;;;;;;25.00;3.45;;;;;;;12.96;100.00;101875.63;4879560;29;20058;-67
2022/10/17 09:21:20;;;;;;;24.25;3.53;;;;;;;13.02;100.00;101872.16;4895405;29;20040;-67
2022/10/17 09:23:53;;;;;;;19.83;3.38;;;;;;;13.07;100.00;101861.59;4879462;29;20032;-66
2022/10/17 09:26:18;;;;;;;19.02;3.25;;;;;;;13.11;100.00;101857.53;4879554;29;20032;-67
2022/10/17 09:28:50;;;;;;;21.90;2.97;;;;;;;13.15;100.00;101863.38;4894767;29;20060;-67
2022/10/17 09:31:32;;;;;;;23.17;2.97;;;;;;;13.21;100.00;101856.34;4895021;29;20040;-68
2022/10/17 09:34:01;;;;;;;19.67;2.92;;;;;;;13.25;100.00;101857.69;4864267;29;20077;-68
2022/10/17 09:36:49;;;;;;;21.80;2.97;;;;;;;13.31;100.00;101856.91;4895166;29;20099;-68
2022/10/17 09:39:21;;;;;;;19.45;3.40;;;;;;;13.33;100.00;101861.09;4876059;29;20518;-69
2022/10/17 09:41:48;;;;;;;25.80;4.75;;;;;;;13.35;100.00;101850.13;4876152;29;20041;-67
2022/10/17 09:44:23;;;;;;;22.08;3.75;;;;;;;13.42;100.00;101848.31;4895020;29;20146;-70
2022/10/17 09:47:13;;;;;;;20.88;3.65;;;;;;;13.49;100.00;101837.56;4913532;29;20410;-68
2022/10/17 09:49:41;;;;;;;24.73;4.38;;;;;;;13.48;100.00;101842.13;4897624;29;20273;-72
2022/10/17 09:52:24;;;;;;;24.35;3.75;;;;;;;13.53;100.00;101828.84;4882210;29;20527;-69
2022/10/17 09:55:00;;;;;;;21.23;4.13;;;;;;;13.52;100.00;101821.78;4913517;29;20495;-68
2022/10/17 09:57:25;;;;;;;16.35;2.45;;;;;;;13.55;100.00;101813.28;4912928;29;20063;-68
2022/10/17 10:00:06;;;;;;;23.73;3.22;;;;;;;13.46;100.00;101800.09;4913176;29;20184;-68
2022/10/17 10:02:35;;;;;;;21.42;3.35;;;;;;;13.52;100.00;101805.56;4913313;29;20068;-70
2022/10/17 10:05:05;;;;;;;26.65;2.90;;;;;;;13.58;100.00;101804.78;4897616;29;20048;-68
2022/10/17 10:07:38;;;;;;;27.73;3.03;;;;;;;13.58;100.00;101803.97;4897557;29;20541;-69
2022/10/17 10:10:25;;;;;;;17.38;2.90;;;;;;;13.58;100.00;101801.25;4915393;29;20082;-72
2022/10/17 10:13:19;;;;;;;25.85;3.03;;;;;;;13.57;100.00;101794.97;4953805;29;20048;-72
2022/10/17 10:15:46;;;;;;;14.18;2.92;;;;;;;13.59;100.00;101787.53;4930357;29;20067;-72
2022/10/17 10:18:24;;;;;;;20.45;3.05;;;;;;;13.60;100.00;101791.88;4936296;29;20082;-69
2022/10/17 10:21:13;;;;;;;21.55;2.75;;;;;;;13.51;100.00;101784.97;4953360;29;20461;-68
2022/10/17 10:23:44;;;;;;;20.60;3.60;;;;;;;13.41;100.00;101781.75;4936052;29;20114;-69
2022/10/17 10:26:18;;;;;;;22.10;3.20;;;;;;;13.52;100.00;101791.22;4936181;29;20039;-68
2022/10/17 10:28:52;;;;;;;20.48;3.10;;;;;;;13.52;100.00;101802.03;4935674;29;20407;-69
2022/10/17 10:31:45;;;;;;;24.92;3.25;;;;;;;13.53;100.00;101790.16;4936199;29;20570;-69
2022/10/17 10:34:34;;;;;;;27.77;3.60;;;;;;;13.48;100.00;101792.63;4938599;29;20050;-69
2022/10/17 10:37:02;;;;;;;23.35;3.35;;;;;;;13.42;100.00;101788.84;4953164;28;20058;-69
2022/10/17 10:39:40;;;;;;;23.98;5.10;;;;;;;13.29;100.00;101773.31;4935786;29;20034;-72
2022/10/17 10:42:18;;;;;;;15.70;2.78;;;;;;;13.33;100.00;101780.00;4938397;29;20035;-70
2022/10/17 10:44:45;;;;;;;20.55;3.53;;;;;;;13.28;100.00;101774.38;4935975;29;20093;-70
2022/10/17 10:47:14;;;;;;;21.67;3.53;;;;;;;13.26;100.00;101768.31;4936091;29;20054;-70
2022/10/17 10:49:40;;;;;;;20.98;3.35;;;;;;;13.24;100.00;101769.47;4935496;29;20070;-69
2022/10/17 10:52:09;;;;;;;21.00;3.35;;;;;;;13.21;100.00;101769.88;4936100;29;20082;-70
2022/10/17 10:54:41;;;;;;;19.38;3.65;;;;;;;13.22;100.00;101776.97;4936015;29;20087;-70
2022/10/17 10:57:29;;;;;;;15.43;2.58;;;;;;;13.22;100.00;101779.66;4953274;29;20390;-70
2022/10/17 11:00:14;;;;;;;20.65;3.05;;;;;;;13.16;100.00;101776.69;4893615;29;20048;-70
2022/10/17 11:02:52;;;;;;;20.50;3.05;;;;;;;13.04;100.00;101756.59;4893837;29;20091;-69
2022/10/17 11:05:34;;;;;;;15.73;2.70;;;;;;;13.11;100.00;101768.34;4893921;29;20123;-69
2022/10/17 11:08:12;;;;;;;17.48;2.50;;;;;;;13.10;100.00;101774.75;4880668;29;20079;-70
2022/10/17 11:10:48;;;;;;;18.33;2.38;;;;;;;13.05;100.00;101750.19;4897705;29;20044;-70
2022/10/17 11:13:27;;;;;;;19.77;2.60;;;;;;;13.16;100.00;101748.84;4882042;29;20041;-69
2022/10/17 11:16:19;;;;;;;17.58;2.92;;;;;;;13.19;100.00;101747.63;4897626;29;20044;-69
2022/10/17 11:18:50;;;;;;;26.45;3.05;;;;;;;13.21;100.00;101742.84;4897693;29;20051;-69
2022/10/17 11:21:27;;;;;;;14.88;2.15;;;;;;;13.22;100.00;101741.84;4881578;29;20129;-68
2022/10/17 11:23:58;;;;;;;22.48;3.42;;;;;;;13.21;100.00;101738.28;4881160;29;20037;-70
2022/10/17 11:26:34;;;;;;;18.00;2.85;;;;;;;13.22;100.00;101728.31;4878745;29;20520;-69
2022/10/17 11:29:05;;;;;;;18.45;2.47;;;;;;;13.19;100.00;101712.50;4889325;29;20056;-69